GOBD Airport Information

Runway Information
Airport Frequencies
Airport Navaids
Airport Weather Information & NOTAM
ADDS - METARS form results

(0704 UTC 20 January 2022)
Data provider http://aviationweather.gov/metar/data/
 
METAR text: GOBD 200630Z 36009KT 8000 NSC 20/19 Q1013 NOSIG
Conditions at: GOBD (DAKAR/DIAGNE , SN) observed 0630 UTC 20 January 2022
Temperature: 20.0°C (68°F)
Dewpoint: 19.0°C (66°F) [RH = 94%]
Pressure (altimeter): 29.91 inches Hg (1013.0 mb)
Winds: from the N (360 degrees) at 10 MPH (9 knots; 4.6 m/s)
Visibility: 5 miles ( 8 km)
Ceiling: at least 12,000 feet AGL
Clouds: sky clear below 12,000 feet AGL
Weather: no significant weather observed at this time

Forecast for: GOBD (DAKAR/DIAGNE , SN)
Text: TAF GOBD 200530Z 2006/2112 05010KT 8000 NSC
Forecast period: 0600 UTC 20 January 2022 to 1200 UTC 21 January 2022
Forecast type: FROM: standard forecast or significant change
Winds: from the NE (50 degrees) at 12 MPH (10 knots; 5.1 m/s)
Visibility: 5 miles (8 km)
Ceiling: unknown
Clouds: missing
Weather: no significant weather forecast for this period